Time;durP1;ratioP1;P1;durP2;ratioP2;P2;SDS_P1;SDS_P2;PMS_P1;PMS_P2;Temp;Humidity;BMP_temperature;BMP_pressure;BME280_temperature;BME280_humidity;BME280_pressure;Samples;Min_cycle;Max_cycle;Signal;HPM_P1;HPM_P2
2022/03/21 00:00:56;;;;;;;0.10;0.10;;;5.80;1.00;226.50;231333.00;;;;5062357;28;20247;-76
2022/03/21 00:03:28;;;;;;;0.10;0.10;;;5.90;1.00;226.50;231333.00;;;;5063735;28;20232;-76
2022/03/21 00:05:58;;;;;;;0.10;0.10;;;5.80;1.00;226.50;231333.00;;;;5061785;28;20206;-76
2022/03/21 00:08:28;;;;;;;0.10;0.10;;;5.70;1.00;226.50;231333.00;;;;5062021;28;20197;-73
2022/03/21 00:10:57;;;;;;;0.10;0.10;;;5.50;1.00;226.50;231333.00;;;;5062009;28;20194;-73
2022/03/21 00:13:26;;;;;;;0.10;0.10;;;5.40;1.00;226.50;231333.00;;;;5062452;28;20217;-74
2022/03/21 00:15:56;;;;;;;0.10;0.10;;;5.50;1.00;226.50;231333.00;;;;5061562;28;20715;-73
2022/03/21 00:18:27;;;;;;;0.10;0.10;;;5.40;1.00;226.50;231333.00;;;;5063744;28;20205;-75
2022/03/21 00:20:56;;;;;;;0.10;0.10;;;5.40;1.00;226.50;231333.00;;;;5062076;28;20521;-74
2022/03/21 00:23:25;;;;;;;0.10;0.10;;;5.40;1.00;226.50;231333.00;;;;5062050;28;20217;-74
2022/03/21 00:25:54;;;;;;;0.10;0.10;;;5.40;1.00;226.50;231333.00;;;;5062005;28;20189;-76
2022/03/21 00:28:22;;;;;;;0.10;0.10;;;5.30;1.00;226.50;231333.00;;;;5062327;28;20595;-74
2022/03/21 00:30:51;;;;;;;0.10;0.10;;;5.40;1.00;226.50;231333.00;;;;5065287;28;20190;-75
2022/03/21 00:33:19;;;;;;;0.10;0.10;;;5.50;1.00;226.50;231333.00;;;;5072004;28;20700;-75
2022/03/21 00:35:51;;;;;;;0.10;0.10;;;5.60;1.00;226.50;231333.00;;;;5064816;28;20569;-75
2022/03/21 00:38:21;;;;;;;0.10;0.10;;;5.50;1.00;226.50;231333.00;;;;5065577;28;20199;-73
2022/03/21 00:40:49;;;;;;;0.10;0.10;;;5.40;1.00;226.50;231333.00;;;;5065461;28;20240;-73
2022/03/21 00:43:21;;;;;;;0.10;0.10;;;5.30;1.00;226.50;231333.00;;;;5064392;28;20692;-73
2022/03/21 00:45:52;;;;;;;0.10;0.10;;;5.30;1.00;226.50;231333.00;;;;5064540;28;20202;-73
2022/03/21 00:48:21;;;;;;;0.00;0.00;;;5.30;1.00;226.50;231333.00;;;;5064539;28;20257;-73
2022/03/21 00:50:50;;;;;;;0.10;0.10;;;5.40;1.00;226.50;231333.00;;;;5063788;28;20190;-73
2022/03/21 00:53:19;;;;;;;0.10;0.10;;;5.30;1.00;226.50;231333.00;;;;5064063;28;20260;-73
2022/03/21 00:55:49;;;;;;;0.10;0.10;;;5.30;1.00;226.50;231333.00;;;;5063031;28;20337;-72
2022/03/21 00:58:18;;;;;;;0.10;0.10;;;5.30;1.00;226.50;231333.00;;;;5062191;28;20190;-73
2022/03/21 01:00:46;;;;;;;0.00;0.00;;;5.20;1.00;226.50;231333.00;;;;5061177;28;20190;-73
2022/03/21 01:03:15;;;;;;;0.10;0.10;;;5.20;1.00;226.50;231333.00;;;;5060492;28;20217;-72
2022/03/21 01:05:43;;;;;;;0.10;0.10;;;5.20;1.00;226.50;231333.00;;;;5060197;28;20252;-73
2022/03/21 01:08:12;;;;;;;0.10;0.10;;;5.20;1.00;226.50;231333.00;;;;5060923;28;20198;-72
2022/03/21 01:10:40;;;;;;;0.10;0.10;;;5.20;1.00;226.50;231333.00;;;;5060045;28;20724;-72
2022/03/21 01:13:09;;;;;;;0.10;0.10;;;5.20;1.00;226.50;231333.00;;;;5061287;28;20226;-72
2022/03/21 01:15:37;;;;;;;0.10;0.10;;;5.10;1.00;226.50;231333.00;;;;5077394;28;20252;-73
2022/03/21 01:18:04;;;;;;;0.10;0.10;;;5.00;1.00;226.50;231333.00;;;;5060811;28;20704;-73
2022/03/21 01:20:32;;;;;;;0.10;0.10;;;5.00;1.00;226.50;231333.00;;;;5061163;28;20194;-74
2022/03/21 01:23:00;;;;;;;0.10;0.10;;;5.10;1.00;226.50;231333.00;;;;5060434;28;20625;-73
2022/03/21 01:25:30;;;;;;;0.10;0.10;;;5.00;1.00;226.50;231333.00;;;;5060446;28;20281;-73
2022/03/21 01:27:58;;;;;;;0.10;0.10;;;5.00;1.00;226.50;231333.00;;;;5060479;28;20614;-74
2022/03/21 01:30:25;;;;;;;0.10;0.10;;;5.00;1.00;226.50;231333.00;;;;5060368;28;20248;-74
2022/03/21 01:32:53;;;;;;;0.10;0.10;;;5.00;1.00;226.50;231333.00;;;;5061871;28;20907;-73
2022/03/21 01:35:22;;;;;;;0.10;0.10;;;5.00;1.00;226.50;231333.00;;;;5061201;28;20659;-73
2022/03/21 01:37:50;;;;;;;0.10;0.10;;;5.10;1.00;226.50;231333.00;;;;5060892;28;20208;-75
2022/03/21 01:40:18;;;;;;;0.10;0.10;;;5.00;1.00;226.50;231333.00;;;;5059164;28;20724;-72
2022/03/21 01:42:48;;;;;;;0.10;0.10;;;5.10;1.00;226.50;231333.00;;;;5060006;28;20226;-74
2022/03/21 01:45:19;;;;;;;0.10;0.10;;;5.10;1.00;226.50;231333.00;;;;5059905;28;20186;-74
2022/03/21 01:47:48;;;;;;;0.00;0.00;;;5.10;1.00;226.50;231333.00;;;;5059065;28;20442;-75
2022/03/21 01:50:16;;;;;;;0.10;0.10;;;5.10;1.00;226.50;231333.00;;;;5060686;28;20194;-74
2022/03/21 01:52:45;;;;;;;0.10;0.10;;;5.00;1.00;226.50;231333.00;;;;5059888;28;20210;-74
2022/03/21 01:58:03;;;;;;;0.10;0.10;;;4.80;1.00;226.50;231333.00;;;;5060553;28;20748;-73
2022/03/21 02:00:31;;;;;;;0.10;0.10;;;4.80;1.00;226.50;231333.00;;;;5059512;28;20194;-74
2022/03/21 02:02:59;;;;;;;0.10;0.10;;;4.70;1.00;226.50;231333.00;;;;5059694;28;20225;-73
2022/03/21 02:05:34;;;;;;;0.10;0.10;;;4.70;1.00;226.50;231333.00;;;;5059812;28;20194;-73
2022/03/21 02:08:03;;;;;;;0.10;0.10;;;4.70;1.00;226.50;231333.00;;;;5059766;28;20194;-73
2022/03/21 02:10:32;;;;;;;0.10;0.10;;;4.60;1.00;226.50;231333.00;;;;5060045;28;20198;-73
2022/03/21 02:13:02;;;;;;;0.10;0.10;;;4.50;1.00;226.50;231333.00;;;;5060050;28;20737;-74
2022/03/21 02:15:30;;;;;;;0.10;0.10;;;4.50;1.00;226.50;231333.00;;;;5059788;28;20733;-73
2022/03/21 02:18:02;;;;;;;0.10;0.10;;;4.40;1.00;226.50;231333.00;;;;5057739;28;20292;-73
2022/03/21 02:20:35;;;;;;;0.10;0.10;;;4.50;1.00;226.50;231333.00;;;;5075127;28;20240;-73
2022/03/21 02:23:13;;;;;;;0.00;0.00;;;4.40;1.00;226.50;231333.00;;;;5058951;28;20243;-74
2022/03/21 02:25:44;;;;;;;0.10;0.10;;;4.30;1.00;226.50;231333.00;;;;5059490;28;20658;-74
2022/03/21 02:28:15;;;;;;;0.10;0.10;;;4.10;1.00;226.50;231333.00;;;;5059587;28;20202;-74
2022/03/21 02:30:47;;;;;;;0.10;0.10;;;4.10;1.00;226.50;231333.00;;;;5060151;28;20194;-73
2022/03/21 02:33:19;;;;;;;0.10;0.10;;;4.00;1.00;226.50;231333.00;;;;5059898;28;20198;-73
2022/03/21 02:35:50;;;;;;;0.10;0.10;;;4.00;1.00;226.50;231333.00;;;;5060629;28;20198;-76
2022/03/21 02:38:20;;;;;;;0.10;0.10;;;4.00;1.00;226.50;231333.00;;;;5060823;28;20225;-76
2022/03/21 02:40:49;;;;;;;0.10;0.10;;;3.90;1.00;226.50;231333.00;;;;5059404;28;20201;-75
2022/03/21 02:43:17;;;;;;;0.10;0.10;;;3.80;1.00;226.50;231333.00;;;;5060170;28;20222;-73
2022/03/21 02:45:45;;;;;;;0.10;0.10;;;3.70;1.00;226.50;231333.00;;;;5059433;28;20734;-73
2022/03/21 02:48:14;;;;;;;0.10;0.10;;;3.70;1.00;226.50;231333.00;;;;5060158;28;20289;-71
2022/03/21 02:50:50;;;;;;;0.10;0.10;;;3.60;1.00;226.50;231333.00;;;;5058761;28;20252;-72
2022/03/21 02:53:19;;;;;;;0.10;0.10;;;3.60;1.00;226.50;231333.00;;;;5074524;28;20524;-71
2022/03/21 02:55:55;;;;;;;0.10;0.10;;;3.60;1.00;226.50;231333.00;;;;5059241;28;20671;-74
2022/03/21 02:58:23;;;;;;;0.10;0.10;;;3.60;1.00;226.50;231333.00;;;;5059690;28;20210;-72
2022/03/21 03:00:51;;;;;;;0.10;0.10;;;3.60;1.00;226.50;231333.00;;;;5058782;28;20578;-71
2022/03/21 03:03:19;;;;;;;0.10;0.10;;;3.50;1.00;226.50;231333.00;;;;5059374;28;20267;-71
2022/03/21 03:05:47;;;;;;;0.10;0.10;;;3.40;1.00;226.50;231333.00;;;;5059060;28;20537;-73
2022/03/21 03:08:15;;;;;;;0.10;0.10;;;3.20;1.00;226.50;231333.00;;;;5059655;28;20189;-72
2022/03/21 03:10:43;;;;;;;0.10;0.10;;;3.20;1.00;226.50;231333.00;;;;5059288;28;20216;-71
2022/03/21 03:13:12;;;;;;;0.10;0.10;;;3.20;1.00;226.50;231333.00;;;;5060041;28;20210;-71
2022/03/21 03:15:40;;;;;;;0.10;0.10;;;3.20;1.00;226.50;231333.00;;;;5059809;28;20206;-71
2022/03/21 03:18:08;;;;;;;0.10;0.10;;;3.20;1.00;226.50;231333.00;;;;5060515;28;20186;-72
2022/03/21 03:20:37;;;;;;;0.10;0.10;;;3.20;1.00;226.50;231333.00;;;;5059291;28;20186;-72
2022/03/21 03:23:07;;;;;;;0.00;0.00;;;3.10;1.00;226.50;231333.00;;;;5059777;28;20215;-72
2022/03/21 03:25:37;;;;;;;0.05;0.05;;;3.00;1.00;226.50;231333.00;;;;5058695;28;20203;-73
2022/03/21 03:28:07;;;;;;;0.10;0.10;;;3.00;1.00;226.50;231333.00;;;;5059404;28;20542;-71
2022/03/21 03:30:37;;;;;;;0.10;0.10;;;2.90;1.00;226.50;231333.00;;;;5060788;28;20195;-70
2022/03/21 03:33:05;;;;;;;0.10;0.10;;;2.90;1.00;226.50;231333.00;;;;5063204;28;20210;-71
2022/03/21 03:35:33;;;;;;;0.10;0.10;;;2.90;1.00;226.50;231333.00;;;;5063495;28;20750;-71
2022/03/21 03:38:02;;;;;;;0.10;0.10;;;2.80;1.00;226.50;231333.00;;;;5063577;28;20216;-72
2022/03/21 03:40:30;;;;;;;0.10;0.10;;;2.80;1.00;226.50;231333.00;;;;5064003;28;20596;-72
2022/03/21 03:42:58;;;;;;;0.05;0.05;;;2.80;1.00;226.50;231333.00;;;;5062721;28;20331;-71
2022/03/21 03:45:26;;;;;;;0.10;0.10;;;2.70;1.00;226.50;231333.00;;;;5063675;28;20214;-71
2022/03/21 03:47:55;;;;;;;0.10;0.10;;;2.70;1.00;226.50;231333.00;;;;5062272;28;20202;-71
2022/03/21 03:50:24;;;;;;;0.10;0.10;;;2.70;1.00;226.50;231333.00;;;;5062621;28;20244;-71
2022/03/21 03:52:52;;;;;;;0.10;0.10;;;2.70;1.00;226.50;231333.00;;;;5062462;28;20698;-71
2022/03/21 03:55:19;;;;;;;0.10;0.10;;;2.60;1.00;226.50;231333.00;;;;5063276;28;20268;-71
2022/03/21 03:57:48;;;;;;;0.10;0.10;;;2.60;1.00;226.50;231333.00;;;;5062191;28;20239;-71
2022/03/21 04:00:18;;;;;;;0.10;0.10;;;2.60;1.00;226.50;231333.00;;;;5062607;28;20240;-71
2022/03/21 04:05:35;;;;;;;0.10;0.10;;;2.60;1.00;226.50;231333.00;;;;5062815;28;20698;-71
2022/03/21 04:08:04;;;;;;;0.10;0.10;;;2.60;1.00;226.50;231333.00;;;;5062190;28;20190;-71
2022/03/21 04:10:32;;;;;;;0.10;0.10;;;2.60;1.00;226.50;231333.00;;;;5063792;28;20198;-70
2022/03/21 04:12:59;;;;;;;0.10;0.10;;;2.60;1.00;226.50;231333.00;;;;5062311;28;20217;-70
2022/03/21 04:15:27;;;;;;;0.10;0.10;;;2.60;1.00;226.50;231333.00;;;;5064149;28;20610;-71
2022/03/21 04:18:00;;;;;;;0.10;0.10;;;2.50;1.00;226.50;231333.00;;;;5062193;28;20689;-71
2022/03/21 04:20:31;;;;;;;0.10;0.10;;;2.50;1.00;226.50;231333.00;;;;5062747;28;20194;-71
2022/03/21 04:23:01;;;;;;;0.10;0.10;;;2.60;1.00;226.50;231333.00;;;;5061718;28;20222;-70
2022/03/21 04:25:29;;;;;;;0.10;0.10;;;2.50;1.00;226.50;231333.00;;;;5061782;28;20703;-72
2022/03/21 04:27:57;;;;;;;0.10;0.10;;;2.50;1.00;226.50;231333.00;;;;5061191;28;20197;-72
2022/03/21 04:30:26;;;;;;;0.17;0.17;;;2.40;1.00;226.50;231333.00;;;;5061060;28;20205;-72
2022/03/21 04:32:54;;;;;;;0.10;0.10;;;2.40;1.00;226.50;231333.00;;;;5061997;28;20218;-71
2022/03/21 04:35:22;;;;;;;0.10;0.10;;;2.40;1.00;226.50;231333.00;;;;5061436;28;20607;-71
2022/03/21 04:37:50;;;;;;;0.10;0.10;;;2.40;1.00;226.50;231333.00;;;;5060469;28;20229;-71
2022/03/21 04:40:19;;;;;;;0.10;0.10;;;2.40;1.00;226.50;231333.00;;;;5061167;28;20206;-71
2022/03/21 04:42:47;;;;;;;0.10;0.10;;;2.40;1.00;226.50;231333.00;;;;5059942;28;20264;-71
2022/03/21 04:45:16;;;;;;;0.10;0.10;;;2.40;1.00;226.50;231333.00;;;;5061850;28;20214;-74
2022/03/21 04:47:45;;;;;;;0.10;0.10;;;2.30;1.00;226.50;231333.00;;;;5061530;28;20186;-73
2022/03/21 04:50:14;;;;;;;0.10;0.10;;;2.30;1.00;226.50;231333.00;;;;5061191;28;21086;-72
2022/03/21 04:52:42;;;;;;;0.10;0.10;;;2.30;1.00;226.50;231333.00;;;;5061352;28;20728;-73
2022/03/21 04:55:10;;;;;;;0.10;0.10;;;2.30;1.00;226.50;231333.00;;;;5061125;28;20263;-72
2022/03/21 04:57:44;;;;;;;0.10;0.10;;;2.40;1.00;226.50;231333.00;;;;5062729;28;20226;-76
2022/03/21 05:00:13;;;;;;;0.10;0.10;;;2.40;1.00;226.50;231333.00;;;;5061961;28;20197;-73
2022/03/21 05:02:41;;;;;;;0.10;0.10;;;2.30;1.00;226.50;231333.00;;;;5059894;28;20526;-71
2022/03/21 05:05:10;;;;;;;0.10;0.10;;;2.30;1.00;226.50;231333.00;;;;5060840;28;20281;-71
2022/03/21 05:07:42;;;;;;;0.10;0.10;;;2.20;1.00;226.50;231333.00;;;;5061841;28;20247;-72
2022/03/21 05:10:11;;;;;;;0.10;0.10;;;2.20;1.00;226.50;231333.00;;;;5061267;28;20185;-70
2022/03/21 05:12:39;;;;;;;0.10;0.10;;;2.30;1.00;226.50;231333.00;;;;5060761;28;20218;-71
2022/03/21 05:15:10;;;;;;;0.10;0.10;;;2.20;1.00;226.50;231333.00;;;;5061181;28;20206;-71
2022/03/21 05:17:38;;;;;;;0.10;0.10;;;2.20;1.00;226.50;231333.00;;;;5061253;28;20213;-71
2022/03/21 05:20:12;;;;;;;0.10;0.10;;;2.10;1.00;226.50;231333.00;;;;5060942;28;20197;-71
2022/03/21 05:22:40;;;;;;;0.10;0.10;;;2.20;1.00;226.50;231333.00;;;;5061000;28;20222;-70
2022/03/21 05:30:59;;;;;;;0.10;0.10;;;2.20;1.00;226.50;231333.00;;;;5061642;28;20214;-71
2022/03/21 05:36:13;;;;;;;0.00;0.00;;;2.20;1.00;226.50;231333.00;;;;5061794;28;21098;-71
2022/03/21 05:38:42;;;;;;;0.10;0.10;;;2.20;1.00;226.50;231333.00;;;;5061996;28;20199;-71
2022/03/21 05:41:10;;;;;;;0.10;0.10;;;2.20;1.00;226.50;231333.00;;;;5065293;28;20643;-73
2022/03/21 05:43:38;;;;;;;0.10;0.10;;;2.20;1.00;226.50;231333.00;;;;5065913;28;20252;-71
2022/03/21 05:46:07;;;;;;;0.10;0.10;;;2.20;1.00;226.50;231333.00;;;;5063375;28;20619;-72
2022/03/21 05:48:54;;;;;;;0.10;0.10;;;2.20;1.00;226.50;231333.00;;;;5064570;28;20481;-72
2022/03/21 05:51:27;;;;;;;0.10;0.10;;;2.20;1.00;226.50;231333.00;;;;5063507;28;20316;-73
2022/03/21 05:53:56;;;;;;;0.10;0.10;;;2.20;1.00;226.50;231333.00;;;;5060981;28;20198;-73
2022/03/21 05:56:25;;;;;;;0.10;0.10;;;2.20;1.00;226.50;231333.00;;;;5061602;28;20702;-74
2022/03/21 05:58:54;;;;;;;0.10;0.10;;;2.30;1.00;226.50;231333.00;;;;5061500;28;20196;-74
2022/03/21 06:01:24;;;;;;;0.10;0.10;;;2.30;1.00;226.50;231333.00;;;;5061731;28;21742;-75
2022/03/21 06:03:54;;;;;;;0.10;0.10;;;2.40;1.00;226.50;231333.00;;;;5063096;28;20674;-75
2022/03/21 06:06:23;;;;;;;0.13;0.13;;;2.40;1.00;226.50;231333.00;;;;5082818;28;20656;-73
2022/03/21 06:08:52;;;;;;;0.10;0.10;;;2.40;1.00;226.50;231333.00;;;;5059762;28;20185;-71
2022/03/21 06:11:20;;;;;;;0.20;0.20;;;2.40;1.00;226.50;231333.00;;;;5063277;28;20206;-72
2022/03/21 06:13:49;;;;;;;0.10;0.10;;;2.40;1.00;226.50;231333.00;;;;5061235;28;20262;-71
2022/03/21 06:16:17;;;;;;;0.20;0.20;;;2.50;1.00;226.50;231333.00;;;;5064074;28;20204;-72
2022/03/21 06:18:47;;;;;;;0.10;0.10;;;2.50;1.00;226.50;231333.00;;;;5064128;28;20922;-76
2022/03/21 06:21:16;;;;;;;0.20;0.20;;;2.50;1.00;226.50;231333.00;;;;5074644;28;20213;-74
2022/03/21 06:23:44;;;;;;;0.10;0.10;;;2.50;1.00;226.50;231333.00;;;;5073098;28;20205;-73
2022/03/21 06:26:12;;;;;;;0.20;0.20;;;2.50;1.00;226.50;231333.00;;;;5072820;28;20244;-74
2022/03/21 06:28:40;;;;;;;0.10;0.10;;;2.60;1.00;226.50;231333.00;;;;5071534;28;20190;-74
2022/03/21 06:31:08;;;;;;;0.10;0.10;;;2.60;1.00;226.50;231333.00;;;;5073029;28;20292;-73
2022/03/21 06:33:36;;;;;;;0.10;0.10;;;2.60;1.00;226.50;231333.00;;;;5069503;28;20193;-73
2022/03/21 06:36:05;;;;;;;0.10;0.10;;;2.70;1.00;226.50;231333.00;;;;5069996;28;20209;-74
2022/03/21 06:38:33;;;;;;;0.10;0.10;;;2.80;1.00;226.50;231333.00;;;;5062003;28;20193;-74
2022/03/21 06:41:03;;;;;;;0.10;0.10;;;2.70;1.00;226.50;231333.00;;;;5070641;28;20666;-74
2022/03/21 06:43:31;;;;;;;0.10;0.10;;;2.70;1.00;226.50;231333.00;;;;5069293;28;20251;-73
2022/03/21 06:46:05;;;;;;;0.10;0.10;;;2.80;1.00;226.50;231333.00;;;;5071790;28;20209;-74
2022/03/21 06:48:34;;;;;;;0.15;0.15;;;2.80;1.00;226.50;231333.00;;;;5073158;28;20221;-73
2022/03/21 06:51:03;;;;;;;0.10;0.10;;;2.80;1.00;226.50;231333.00;;;;5075802;28;20197;-74
2022/03/21 06:53:33;;;;;;;0.10;0.10;;;3.00;1.00;226.50;231333.00;;;;5061011;28;20182;-74
2022/03/21 06:56:01;;;;;;;0.10;0.10;;;3.00;1.00;226.50;231333.00;;;;5058286;28;20804;-74
2022/03/21 06:58:30;;;;;;;0.10;0.10;;;3.10;1.00;226.50;231333.00;;;;5074845;28;20235;-74
2022/03/21 07:00:58;;;;;;;0.10;0.10;;;3.20;1.00;226.50;231333.00;;;;5059859;28;20194;-74
2022/03/21 07:03:26;;;;;;;0.10;0.10;;;3.20;1.00;226.50;231333.00;;;;5059820;28;20202;-75
2022/03/21 07:05:55;;;;;;;0.10;0.10;;;3.30;1.00;226.50;231333.00;;;;5063146;28;20210;-74
2022/03/21 07:08:29;;;;;;;0.10;0.10;;;3.40;1.00;226.50;231333.00;;;;5065341;28;20193;-74
2022/03/21 07:10:59;;;;;;;0.10;0.10;;;3.40;1.00;226.50;231333.00;;;;5064352;28;20202;-74
2022/03/21 07:13:27;;;;;;;0.10;0.10;;;3.50;1.00;226.50;231333.00;;;;5063626;28;20254;-74
2022/03/21 07:15:56;;;;;;;0.10;0.10;;;3.50;1.00;226.50;231333.00;;;;5064118;28;20247;-74
2022/03/21 07:18:25;;;;;;;0.10;0.10;;;3.60;1.00;226.50;231333.00;;;;5064431;28;20186;-74
2022/03/21 07:20:53;;;;;;;0.10;0.10;;;3.70;1.00;226.50;231333.00;;;;5077030;28;20189;-74
2022/03/21 07:23:21;;;;;;;0.10;0.10;;;3.80;1.00;226.50;231333.00;;;;5074542;28;20197;-76
2022/03/21 07:25:50;;;;;;;0.10;0.10;;;3.80;1.00;226.50;231333.00;;;;5084978;28;20224;-74
2022/03/21 07:28:19;;;;;;;0.10;0.10;;;3.90;1.00;226.50;231333.00;;;;5074384;28;20194;-74
2022/03/21 07:31:09;;;;;;;0.10;0.10;;;4.00;1.00;226.50;231333.00;;;;5074278;28;20378;-76
2022/03/21 07:33:38;;;;;;;0.10;0.10;;;4.00;1.00;226.50;231333.00;;;;5072285;28;20202;-75
2022/03/21 07:36:07;;;;;;;0.10;0.10;;;4.20;1.00;226.50;231333.00;;;;5071064;28;20197;-75
2022/03/21 07:38:36;;;;;;;0.20;0.20;;;4.20;1.00;226.50;231333.00;;;;5069568;28;20257;-75
2022/03/21 07:41:07;;;;;;;0.10;0.10;;;4.20;1.00;226.50;231333.00;;;;5073937;28;20266;-74
2022/03/21 07:43:38;;;;;;;0.10;0.10;;;4.30;1.00;226.50;231333.00;;;;5075561;28;20206;-75
2022/03/21 07:48:52;;;;;;;0.10;0.10;;;4.50;1.00;226.50;231333.00;;;;5090028;28;20197;-75
2022/03/21 07:51:20;;;;;;;0.00;0.00;;;4.60;1.00;226.50;231333.00;;;;5074120;28;20218;-75
2022/03/21 07:53:48;;;;;;;0.10;0.10;;;4.60;1.00;226.50;231333.00;;;;5072272;28;20583;-75
2022/03/21 07:56:23;;;;;;;0.10;0.10;;;4.70;1.00;226.50;231333.00;;;;5073271;28;20225;-75
2022/03/21 07:58:52;;;;;;;0.10;0.10;;;4.70;1.00;226.50;231333.00;;;;5070842;28;20189;-75
2022/03/21 08:01:20;;;;;;;0.10;0.10;;;4.80;1.00;226.50;231333.00;;;;5074594;28;20210;-75
2022/03/21 08:03:49;;;;;;;0.08;0.08;;;4.80;1.00;226.50;231333.00;;;;5077007;28;20185;-75
2022/03/21 08:06:18;;;;;;;0.10;0.10;;;4.80;1.00;226.50;231333.00;;;;5074630;28;20237;-75
2022/03/21 08:08:47;;;;;;;0.10;0.10;;;4.90;1.00;226.50;231333.00;;;;5077502;28;20198;-75
2022/03/21 08:11:17;;;;;;;0.10;0.10;;;4.90;1.00;226.50;231333.00;;;;5079127;28;20328;-75
2022/03/21 08:13:49;;;;;;;0.10;0.10;;;5.00;1.00;226.50;231333.00;;;;5081549;28;20228;-75
2022/03/21 08:16:21;;;;;;;0.00;0.00;;;5.10;1.00;226.50;231333.00;;;;5073357;28;20227;-75
2022/03/21 08:18:51;;;;;;;0.10;0.10;;;5.10;1.00;226.50;231333.00;;;;5072349;28;20219;-75
2022/03/21 08:21:20;;;;;;;0.10;0.10;;;5.10;1.00;226.50;231333.00;;;;5079165;28;20214;-75
2022/03/21 08:23:50;;;;;;;0.10;0.10;;;5.20;1.00;226.50;231333.00;;;;5075496;28;20480;-75
2022/03/21 08:26:18;;;;;;;0.10;0.10;;;5.20;1.00;226.50;231333.00;;;;5072591;28;20225;-75
2022/03/21 08:28:47;;;;;;;0.10;0.10;;;5.30;1.00;226.50;231333.00;;;;5076254;28;20194;-75
2022/03/21 08:31:15;;;;;;;0.10;0.10;;;5.50;1.00;226.50;231333.00;;;;5078680;28;20266;-75
2022/03/21 08:33:45;;;;;;;0.10;0.10;;;5.50;1.00;226.50;231333.00;;;;5077135;28;20205;-75
2022/03/21 08:36:13;;;;;;;0.10;0.10;;;5.60;1.00;226.50;231333.00;;;;5076893;28;20198;-75
2022/03/21 08:38:41;;;;;;;0.10;0.10;;;5.60;1.00;226.50;231333.00;;;;5076334;28;20204;-75
2022/03/21 08:41:09;;;;;;;0.10;0.10;;;5.70;1.00;226.50;231333.00;;;;5075371;28;20248;-75
2022/03/21 08:43:37;;;;;;;0.10;0.10;;;5.80;1.00;226.50;231333.00;;;;5073139;28;20604;-75
2022/03/21 08:46:05;;;;;;;0.10;0.10;;;6.00;1.00;226.50;231333.00;;;;5072866;28;20729;-74
2022/03/21 08:51:40;;;;;;;0.10;0.10;;;6.00;1.00;226.50;231333.00;;;;5082602;28;20268;-73
2022/03/21 08:54:08;;;;;;;0.10;0.10;;;6.10;1.00;226.50;231333.00;;;;5074187;28;20200;-74
2022/03/21 08:56:37;;;;;;;0.10;0.10;;;6.20;1.00;226.50;231333.00;;;;5069716;28;20247;-74
2022/03/21 08:59:05;;;;;;;0.10;0.10;;;6.30;1.00;226.50;231333.00;;;;5072744;28;20651;-74
2022/03/21 09:01:33;;;;;;;0.10;0.10;;;6.30;1.00;226.50;231333.00;;;;5073116;28;20711;-73
2022/03/21 09:04:02;;;;;;;0.10;0.10;;;6.30;1.00;226.50;231333.00;;;;5073630;28;20250;-73
2022/03/21 09:06:31;;;;;;;0.10;0.10;;;6.30;1.00;226.50;231333.00;;;;5068889;28;20229;-73
2022/03/21 09:09:00;;;;;;;0.10;0.10;;;6.40;1.00;226.50;231333.00;;;;5072753;28;20272;-73
2022/03/21 09:11:28;;;;;;;0.03;0.03;;;6.60;1.00;226.50;231333.00;;;;5073121;28;20217;-73
2022/03/21 09:13:56;;;;;;;0.08;0.08;;;6.60;1.00;226.50;231333.00;;;;5072472;28;20254;-73
2022/03/21 09:16:24;;;;;;;0.10;0.10;;;6.80;1.00;226.50;231333.00;;;;5072512;28;20589;-73
2022/03/21 09:18:52;;;;;;;0.03;0.03;;;6.80;1.00;226.50;231333.00;;;;5072123;28;20185;-74
2022/03/21 09:21:20;;;;;;;0.10;0.10;;;6.90;1.00;226.50;231333.00;;;;5072310;28;20213;-75
2022/03/21 09:23:48;;;;;;;0.10;0.10;;;6.90;1.00;226.50;231333.00;;;;5072487;28;20190;-73
2022/03/21 09:26:19;;;;;;;0.10;0.10;;;7.00;1.00;226.50;231333.00;;;;5066609;28;20186;-73
2022/03/21 09:28:48;;;;;;;0.10;0.10;;;7.10;1.00;226.50;231333.00;;;;5072006;28;20679;-73
2022/03/21 09:31:17;;;;;;;0.10;0.10;;;7.20;1.00;226.50;231333.00;;;;5072833;28;20218;-74
2022/03/21 09:34:05;;;;;;;0.10;0.10;;;7.30;1.00;226.50;231333.00;;;;5071657;28;20282;-73
2022/03/21 09:36:33;;;;;;;0.10;0.10;;;7.30;1.00;226.50;231333.00;;;;5070750;28;20193;-74
2022/03/21 09:39:02;;;;;;;0.10;0.10;;;7.50;1.00;226.50;231333.00;;;;5072433;28;20732;-75
2022/03/21 09:41:32;;;;;;;0.10;0.10;;;7.50;1.00;226.50;231333.00;;;;5072272;28;20251;-74
2022/03/21 09:44:03;;;;;;;0.10;0.10;;;7.60;1.00;226.50;231333.00;;;;5071834;28;20949;-75
2022/03/21 09:46:32;;;;;;;0.10;0.10;;;7.70;1.00;226.50;231333.00;;;;5071309;28;20206;-73
2022/03/21 09:49:00;;;;;;;0.10;0.10;;;7.90;1.00;226.50;231333.00;;;;5071715;28;20201;-73
2022/03/21 09:51:30;;;;;;;0.10;0.10;;;8.00;1.00;226.50;231333.00;;;;5073262;28;20221;-73
2022/03/21 09:54:02;;;;;;;0.10;0.10;;;8.10;1.00;226.50;231333.00;;;;5073072;28;20190;-73
2022/03/21 09:56:31;;;;;;;0.10;0.10;;;8.20;1.00;226.50;231333.00;;;;5073514;28;20224;-73
2022/03/21 09:59:00;;;;;;;0.10;0.10;;;8.30;1.00;226.50;231333.00;;;;5089331;28;20601;-73
2022/03/21 10:01:30;;;;;;;0.10;0.10;;;8.40;1.00;226.50;231333.00;;;;5073444;28;20213;-73
2022/03/21 10:04:00;;;;;;;0.10;0.10;;;8.40;1.00;226.50;231333.00;;;;5073448;28;20232;-73
2022/03/21 10:06:32;;;;;;;0.10;0.10;;;8.30;1.00;226.50;231333.00;;;;5064423;28;20198;-73
2022/03/21 10:09:14;;;;;;;0.10;0.10;;;8.40;1.00;226.50;231333.00;;;;5063674;28;20277;-72
2022/03/21 10:11:51;;;;;;;0.10;0.10;;;8.50;1.00;226.50;231333.00;;;;5066614;28;20559;-73
2022/03/21 10:14:29;;;;;;;0.10;0.10;;;8.60;1.00;226.50;231333.00;;;;5071125;28;20201;-73
2022/03/21 10:17:01;;;;;;;0.10;0.10;;;8.70;1.00;226.50;231333.00;;;;5060712;28;20248;-73
2022/03/21 10:19:44;;;;;;;0.10;0.10;;;8.70;1.00;226.50;231333.00;;;;5061716;28;20189;-72
2022/03/21 10:22:15;;;;;;;0.10;0.10;;;8.80;1.00;226.50;231333.00;;;;5060571;28;20218;-75
2022/03/21 10:24:45;;;;;;;0.10;0.10;;;8.80;1.00;226.50;231333.00;;;;5061044;28;20209;-72
2022/03/21 10:27:36;;;;;;;0.10;0.10;;;8.90;1.00;226.50;231333.00;;;;5060636;28;20217;-73
2022/03/21 10:30:08;;;;;;;0.10;0.10;;;8.90;1.00;226.50;231333.00;;;;5060137;28;20205;-72
2022/03/21 10:32:40;;;;;;;0.10;0.10;;;8.90;1.00;226.50;231333.00;;;;5060441;28;20255;-74
2022/03/21 10:35:12;;;;;;;0.10;0.10;;;8.90;1.00;226.50;231333.00;;;;5059863;28;20607;-73
2022/03/21 10:37:49;;;;;;;0.10;0.10;;;9.20;1.00;226.50;231333.00;;;;5061038;28;20197;-73
2022/03/21 10:40:25;;;;;;;0.10;0.10;;;9.40;1.00;226.50;231333.00;;;;5059503;28;20598;-73
2022/03/21 10:42:59;;;;;;;0.10;0.10;;;9.50;1.00;226.50;231333.00;;;;5059468;28;20288;-73
2022/03/21 10:45:42;;;;;;;0.10;0.10;;;9.60;1.00;226.50;231333.00;;;;5078428;28;20213;-73
2022/03/21 10:48:13;;;;;;;0.10;0.10;;;9.70;1.00;226.50;231333.00;;;;5071942;28;20735;-73
2022/03/21 10:50:46;;;;;;;0.10;0.10;;;9.70;1.00;226.50;231333.00;;;;5071360;28;20205;-73
2022/03/21 10:53:16;;;;;;;0.10;0.10;;;9.90;1.00;226.50;231333.00;;;;5071973;28;20204;-73
2022/03/21 10:55:46;;;;;;;0.10;0.10;;;10.00;1.00;226.50;231333.00;;;;5072187;28;20204;-74
2022/03/21 10:58:32;;;;;;;0.10;0.10;;;10.10;1.00;226.50;231333.00;;;;5072439;28;20205;-73
2022/03/21 11:01:12;;;;;;;0.10;0.10;;;10.20;1.00;226.50;231333.00;;;;5072558;28;20205;-73
2022/03/21 11:03:41;;;;;;;0.10;0.10;;;10.20;1.00;226.50;231333.00;;;;5072317;28;20273;-74
2022/03/21 11:06:11;;;;;;;0.10;0.10;;;10.50;1.00;226.50;231333.00;;;;5071640;28;20189;-73
2022/03/21 11:08:40;;;;;;;0.10;0.10;;;10.70;1.00;226.50;231333.00;;;;5071522;28;20259;-74
2022/03/21 11:11:10;;;;;;;0.10;0.10;;;11.00;1.00;226.50;231333.00;;;;5070869;28;20686;-75
2022/03/21 11:13:40;;;;;;;0.10;0.10;;;11.20;1.00;226.50;231333.00;;;;5069490;28;20247;-73
2022/03/21 11:16:09;;;;;;;0.10;0.10;;;11.60;1.00;226.50;231333.00;;;;5071683;28;20231;-73
2022/03/21 11:18:37;;;;;;;0.10;0.10;;;11.90;1.00;226.50;231333.00;;;;5071514;28;20211;-73
2022/03/21 11:21:07;;;;;;;0.10;0.10;;;12.10;1.00;226.50;231333.00;;;;5072217;28;20197;-73
2022/03/21 11:23:35;;;;;;;0.10;0.10;;;12.50;1.00;226.50;231333.00;;;;5070447;28;20198;-73
2022/03/21 11:26:17;;;;;;;0.10;0.10;;;12.50;1.00;226.50;231333.00;;;;5070587;28;20914;-73